Hartland, Minnesota
Current Conditions -  °F | °C
As of 3:53 AM on Saturday 29 Nov 2014 (Local Time) from KAEL Reporting Station
Haze Haze  
Wind Chill: 15°   Ceiling: 400
Heat Index: 25°   Visibility: 2mi
Dew Point: 25°   Wind: 10mph
Humidity: 100%   Direction: 160°SSE
Pressure: 29.54"   Gusts: NA
Location:  43.8°N, 93.49°W
Report Text: KAEL 290953Z AUTO 16009KT 2SM BR OVC004 M04/M04 A2954 RMK AO2
Loading
Personal Weather Stations






























Interactive Weather Map New forecast layout! Learn more

10-Day Weather Forecast

Advertisements
Track Severe Weather on mobile